Time;durP1;ratioP1;P1;durP2;ratioP2;P2;SDS_P1;SDS_P2;PMS_P1;PMS_P2;Temp;Humidity;BMP_temperature;BMP_pressure;BME280_temperature;BME280_humidity;BME280_pressure;Samples;Min_cycle;Max_cycle;Signal;HPM_P1;HPM_P2
2023/01/28 00:07:00;;;;;;;8.85;4.05;;;-5.20;99.90;;;;;;20902288;28;20029;-54
2023/01/28 00:17:04;;;;;;;14.70;6.80;;;-5.10;99.90;;;;;;20902834;28;20466;-54
2023/01/28 00:27:06;;;;;;;6.15;2.95;;;-5.10;99.90;;;;;;20902447;28;20028;-55
2023/01/28 00:37:08;;;;;;;10.63;4.68;;;-5.10;99.90;;;;;;20900888;28;20033;-55
2023/01/28 00:47:10;;;;;;;7.00;3.10;;;-5.10;99.90;;;;;;20901699;28;20037;-54
2023/01/28 00:57:11;;;;;;;5.82;2.70;;;-5.00;99.90;;;;;;20908851;28;20041;-53
2023/01/28 01:07:13;;;;;;;5.63;2.78;;;-5.20;99.90;;;;;;20897520;28;20037;-53
2023/01/28 01:17:15;;;;;;;6.38;2.58;;;-5.60;99.90;;;;;;20913956;28;20040;-55
2023/01/28 01:27:16;;;;;;;7.80;2.55;;;-5.80;99.90;;;;;;20913071;28;20029;-55
2023/01/28 01:37:18;;;;;;;4.68;2.13;;;-6.00;99.90;;;;;;20894811;28;20785;-55
2023/01/28 01:47:32;;;;;;;7.53;2.70;;;-6.20;99.90;;;;;;20911671;28;20540;-54
2023/01/28 01:57:35;;;;;;;12.27;4.55;;;-6.20;99.90;;;;;;20892601;28;20510;-55
2023/01/28 02:07:38;;;;;;;14.20;5.68;;;-6.00;99.90;;;;;;20892431;28;20265;-53
2023/01/28 02:17:41;;;;;;;12.68;5.43;;;-5.90;99.90;;;;;;20891531;28;20041;-55
2023/01/28 02:28:11;;;;;;;12.98;5.57;;;-5.80;99.90;;;;;;20909312;28;20098;-52
2023/01/28 02:38:23;;;;;;;5.90;2.72;;;-5.90;99.90;;;;;;20906913;28;20099;-50
2023/01/28 02:48:24;;;;;;;5.82;2.72;;;-6.00;99.90;;;;;;20906821;28;20025;-56
2023/01/28 02:58:48;;;;;;;5.57;2.70;;;-6.10;99.90;;;;;;20888253;28;20079;-53
2023/01/28 03:40:05;;;;;;;5.38;2.40;;;-4.40;99.90;;;;;;20886078;28;20099;-53
2023/01/28 03:50:07;;;;;;;4.75;2.03;;;-4.10;99.90;;;;;;20884583;28;20255;-54
2023/01/28 04:00:22;;;;;;;4.18;1.60;;;-4.00;99.90;;;;;;20881517;28;20053;-54
2023/01/28 04:10:24;;;;;;;4.05;1.85;;;-3.90;99.90;;;;;;20884234;28;20040;-53
2023/01/28 04:20:31;;;;;;;3.65;1.65;;;-3.80;99.90;;;;;;20883647;28;20021;-54
2023/01/28 04:30:35;;;;;;;2.85;1.30;;;-3.90;99.90;;;;;;20892170;28;20032;-54
2023/01/28 04:41:03;;;;;;;3.78;1.58;;;-3.90;99.90;;;;;;20661939;28;20046;-54
2023/01/28 04:51:08;;;;;;;3.90;1.70;;;-3.70;99.90;;;;;;20660681;28;20051;-55
2023/01/28 05:01:15;;;;;;;4.18;1.60;;;-3.70;99.90;;;;;;20660197;28;20042;-54
2023/01/28 05:11:17;;;;;;;3.75;1.65;;;-3.70;99.90;;;;;;20714733;28;20044;-54
2023/01/28 05:21:21;;;;;;;4.07;1.65;;;-3.90;99.90;;;;;;20896663;28;20036;-54
2023/01/28 05:31:28;;;;;;;2.72;1.35;;;-4.20;99.90;;;;;;20894799;28;20083;-53
2023/01/28 05:41:32;;;;;;;2.92;1.30;;;-4.40;99.90;;;;;;20893722;28;20052;-53
2023/01/28 05:51:38;;;;;;;4.05;1.80;;;-4.60;99.90;;;;;;20894040;28;20029;-55
2023/01/28 06:01:40;;;;;;;3.60;1.60;;;-4.90;99.90;;;;;;20889659;28;20072;-55
2023/01/28 06:11:44;;;;;;;3.47;1.50;;;-5.00;99.90;;;;;;20891890;28;20033;-53
2023/01/28 06:21:45;;;;;;;3.53;1.55;;;-5.10;99.90;;;;;;20891769;28;20029;-53
2023/01/28 06:31:47;;;;;;;5.57;1.80;;;-5.20;99.90;;;;;;20890904;28;20548;-54
2023/01/28 06:41:49;;;;;;;3.15;1.38;;;-5.50;99.90;;;;;;20907998;28;20045;-55
2023/01/28 06:51:51;;;;;;;4.88;1.77;;;-5.50;99.90;;;;;;20906436;28;21307;-53
2023/01/28 07:01:52;;;;;;;5.53;1.50;;;-5.40;99.90;;;;;;20902553;28;20045;-53
2023/01/28 07:11:54;;;;;;;2.67;1.10;;;-5.00;99.90;;;;;;20904205;28;20021;-54
2023/01/28 07:22:01;;;;;;;2.70;1.10;;;-5.00;99.90;;;;;;20904647;28;20029;-51
2023/01/28 07:32:06;;;;;;;2.88;1.13;;;-4.50;99.90;;;;;;20900480;28;20063;-53
2023/01/28 07:42:08;;;;;;;9.98;3.72;;;-4.40;99.90;;;;;;20902015;28;20056;-55
2023/01/28 07:52:20;;;;;;;5.20;1.88;;;-4.30;99.90;;;;;;20883433;28;20044;-55
2023/01/28 08:02:21;;;;;;;3.67;1.33;;;-4.40;99.90;;;;;;20901257;28;20398;-55
2023/01/28 08:12:23;;;;;;;4.05;1.60;;;-3.50;99.90;;;;;;20899832;28;20079;-52
2023/01/28 08:22:26;;;;;;;3.20;1.45;;;-2.40;99.90;;;;;;20901773;28;20029;-54
2023/01/28 08:32:29;;;;;;;2.38;1.08;;;-1.80;99.90;;;;;;20897599;28;20033;-54
2023/01/28 08:42:31;;;;;;;2.97;1.48;;;-1.30;98.70;;;;;;20899479;28;20548;-52
2023/01/28 08:52:32;;;;;;;2.25;1.27;;;-0.70;97.70;;;;;;20897406;28;20606;-54
2023/01/28 09:02:34;;;;;;;2.13;1.13;;;-0.10;96.70;;;;;;20896669;28;20441;-51
2023/01/28 09:12:36;;;;;;;2.90;1.05;;;0.30;96.30;;;;;;20897882;28;20025;-54
2023/01/28 09:22:40;;;;;;;2.80;1.30;;;0.40;94.50;;;;;;20911693;28;20095;-53
2023/01/28 09:32:42;;;;;;;5.13;1.63;;;0.90;94.90;;;;;;20909451;28;20037;-54
2023/01/28 09:42:57;;;;;;;2.38;1.30;;;1.10;93.10;;;;;;20911857;28;20083;-51
2023/01/28 09:53:20;;;;;;;1.77;1.00;;;0.90;93.10;;;;;;20911362;28;20079;-52
2023/01/28 10:03:33;;;;;;;2.25;0.98;;;1.10;92.10;;;;;;20910157;28;20518;-53
2023/01/28 10:13:49;;;;;;;2.03;1.00;;;1.60;92.70;;;;;;20909032;28;20087;-53
2023/01/28 10:24:14;;;;;;;2.20;1.05;;;2.30;91.10;;;;;;20907219;28;20029;-52
2023/01/28 10:34:15;;;;;;;3.72;1.98;;;1.90;91.10;;;;;;20906384;28;20386;-53
2023/01/28 10:44:36;;;;;;;2.97;1.50;;;2.80;92.10;;;;;;20898206;28;20029;-53
2023/01/28 10:54:38;;;;;;;6.72;3.60;;;3.70;91.10;;;;;;20901075;28;20044;-53
2023/01/28 11:04:40;;;;;;;5.32;3.13;;;4.50;94.00;;;;;;20903645;28;20041;-49
2023/01/28 11:14:52;;;;;;;6.65;3.63;;;5.50;92.50;;;;;;20902846;28;20382;-54
2023/01/28 11:24:54;;;;;;;7.03;3.60;;;5.90;90.50;;;;;;20902324;28;20037;-53
2023/01/28 11:34:57;;;;;;;6.13;3.55;;;6.00;90.40;;;;;;20900541;28;20032;-53
2023/01/28 11:44:58;;;;;;;5.65;3.05;;;6.20;89.30;;;;;;20898132;28;20103;-55
2023/01/28 11:55:35;;;;;;;5.03;3.03;;;6.10;85.30;;;;;;20898468;28;20037;-53
2023/01/28 12:05:50;;;;;;;6.10;3.78;;;5.80;90.70;;;;;;20876489;28;20107;-62
2023/01/28 12:16:17;;;;;;;7.78;4.28;;;5.90;88.60;;;;;;20901095;28;20036;-55
2023/01/28 12:26:34;;;;;;;9.90;5.03;;;5.90;90.20;;;;;;20900059;28;20060;-54
2023/01/28 12:36:57;;;;;;;10.43;6.68;;;5.50;90.40;;;;;;20896782;28;20162;-53
2023/01/28 12:47:09;;;;;;;11.73;6.78;;;5.50;91.50;;;;;;20882195;28;20029;-55
2023/01/28 12:57:20;;;;;;;10.48;5.95;;;5.50;91.00;;;;;;20914431;28;20391;-60
2023/01/28 13:07:33;;;;;;;12.82;6.53;;;5.10;92.60;;;;;;20911042;28;20103;-56
2023/01/28 13:17:35;;;;;;;12.07;6.60;;;4.90;93.30;;;;;;20904263;28;20037;-55
2023/01/28 13:27:36;;;;;;;10.35;6.38;;;4.60;92.30;;;;;;20912044;28;20028;-61
2023/01/28 13:37:44;;;;;;;11.55;6.65;;;3.80;94.00;;;;;;20910167;28;20528;-57
2023/01/28 13:47:51;;;;;;;11.32;6.93;;;2.90;95.40;;;;;;20911632;28;20028;-57
2023/01/28 13:58:05;;;;;;;13.40;7.13;;;2.30;95.70;;;;;;20907563;28;20856;-58
2023/01/28 14:08:15;;;;;;;13.18;7.45;;;1.90;97.60;;;;;;20904434;28;20551;-60
2023/01/28 14:18:32;;;;;;;14.02;7.22;;;1.50;99.30;;;;;;20906858;28;20043;-58
2023/01/28 14:28:40;;;;;;;12.52;6.97;;;1.00;99.40;;;;;;20907800;28;20517;-58
2023/01/28 14:38:44;;;;;;;13.73;7.15;;;0.60;99.90;;;;;;20907840;28;20036;-59
2023/01/28 14:48:49;;;;;;;13.60;7.18;;;0.10;99.90;;;;;;20906612;28;20075;-58
2023/01/28 14:58:58;;;;;;;14.68;7.50;;;-0.30;99.90;;;;;;20906270;28;20099;-58
2023/01/28 15:09:12;;;;;;;12.23;6.68;;;-0.80;99.90;;;;;;20903229;28;20032;-58
2023/01/28 15:19:15;;;;;;;17.25;7.97;;;-1.10;99.90;;;;;;20902582;28;20170;-58
2023/01/28 15:29:33;;;;;;;16.25;7.47;;;-1.40;99.90;;;;;;20904406;28;20043;-58
2023/01/28 15:39:35;;;;;;;22.08;8.35;;;-1.90;99.90;;;;;;20902678;28;20029;-54
2023/01/28 15:49:42;;;;;;;19.35;7.80;;;-2.40;99.90;;;;;;20902950;28;20033;-55
2023/01/28 15:59:46;;;;;;;16.67;7.82;;;-2.90;99.90;;;;;;20899063;28;20114;-61
2023/01/28 16:09:52;;;;;;;19.60;7.85;;;-3.30;99.90;;;;;;20877344;28;20086;-60
2023/01/28 16:20:04;;;;;;;16.35;7.78;;;-3.70;99.90;;;;;;20897662;28;20080;-60
2023/01/28 16:30:07;;;;;;;17.80;7.57;;;-4.10;99.90;;;;;;20912158;28;20040;-60
2023/01/28 16:40:12;;;;;;;15.98;6.70;;;-4.30;99.90;;;;;;20908108;28;20033;-60
2023/01/28 16:50:16;;;;;;;16.92;6.93;;;-4.40;99.90;;;;;;20914265;28;20109;-60
2023/01/28 17:00:22;;;;;;;18.45;7.00;;;-4.50;99.90;;;;;;20916128;28;20098;-60
2023/01/28 17:10:23;;;;;;;17.27;8.07;;;-4.70;99.90;;;;;;20912968;28;20029;-61
2023/01/28 17:20:25;;;;;;;15.98;7.90;;;-4.80;99.90;;;;;;20911695;28;20428;-59
2023/01/28 17:30:27;;;;;;;16.13;7.22;;;-5.00;99.90;;;;;;20896613;28;20056;-58
2023/01/28 17:40:29;;;;;;;16.73;7.40;;;-5.10;99.90;;;;;;20905867;28;20021;-57
2023/01/28 17:50:31;;;;;;;19.73;7.50;;;-5.10;99.90;;;;;;20911840;28;20476;-58
2023/01/28 18:00:32;;;;;;;18.25;7.00;;;-5.20;99.90;;;;;;20907934;28;20045;-57
2023/01/28 18:10:34;;;;;;;16.35;7.85;;;-5.20;99.90;;;;;;20903069;28;20528;-56
2023/01/28 18:20:36;;;;;;;19.05;9.00;;;-5.30;99.90;;;;;;20908614;28;20431;-59
2023/01/28 18:30:38;;;;;;;17.02;8.38;;;-5.40;99.90;;;;;;20907211;28;20382;-58
2023/01/28 18:40:44;;;;;;;15.57;6.50;;;-5.60;99.90;;;;;;20906388;28;20037;-59
2023/01/28 18:50:54;;;;;;;18.17;8.52;;;-5.70;99.90;;;;;;20905630;28;20040;-57
2023/01/28 19:00:56;;;;;;;23.20;8.97;;;-5.80;99.90;;;;;;20887747;28;20074;-58
2023/01/28 19:10:58;;;;;;;15.35;7.35;;;-5.80;99.90;;;;;;20903612;28;20044;-58
2023/01/28 19:21:04;;;;;;;16.48;7.82;;;-6.00;99.90;;;;;;20902883;28;20033;-58
2023/01/28 19:31:08;;;;;;;14.80;6.57;;;-5.90;99.90;;;;;;20902303;28;20052;-59
2023/01/28 19:41:15;;;;;;;13.98;6.53;;;-5.90;99.90;;;;;;20902826;28;20075;-58
2023/01/28 19:51:17;;;;;;;15.13;6.53;;;-5.90;99.90;;;;;;20903382;28;20366;-57
2023/01/28 20:01:22;;;;;;;20.48;8.82;;;-5.90;99.90;;;;;;20896165;28;20110;-55
2023/01/28 20:11:24;;;;;;;16.23;7.22;;;-5.90;99.90;;;;;;20900422;28;20025;-53
2023/01/28 20:21:28;;;;;;;16.27;7.50;;;-6.00;99.90;;;;;;20900430;28;20378;-56
2023/01/28 20:31:31;;;;;;;19.70;8.20;;;-6.10;99.90;;;;;;20896405;28;20466;-56
2023/01/28 20:41:33;;;;;;;16.33;8.00;;;-6.30;99.90;;;;;;20898937;28;20037;-58
2023/01/28 20:51:37;;;;;;;22.05;9.18;;;-6.40;99.90;;;;;;20879647;28;20107;-59
2023/01/28 21:01:39;;;;;;;25.88;10.45;;;-6.40;99.90;;;;;;20887226;28;20099;-59
2023/01/28 21:11:41;;;;;;;24.45;10.90;;;-6.40;99.90;;;;;;20905686;28;20533;-55
2023/01/28 21:21:44;;;;;;;20.55;9.13;;;-6.50;99.90;;;;;;20911703;28;20033;-55
2023/01/28 21:31:46;;;;;;;24.13;10.88;;;-6.50;99.90;;;;;;20912870;28;20025;-55
2023/01/28 21:41:48;;;;;;;19.60;7.93;;;-6.50;99.90;;;;;;20910011;28;20032;-56
2023/01/28 21:51:49;;;;;;;13.65;6.68;;;-6.50;99.90;;;;;;20911242;28;20044;-54
2023/01/28 22:01:51;;;;;;;13.98;5.60;;;-6.50;99.90;;;;;;20910124;28;20064;-56
2023/01/28 22:11:53;;;;;;;16.15;7.70;;;-6.60;99.90;;;;;;20909477;28;20112;-56
2023/01/28 22:21:54;;;;;;;10.20;4.30;;;-6.60;99.90;;;;;;20908140;28;20390;-55
2023/01/28 22:31:56;;;;;;;10.82;3.20;;;-6.50;99.90;;;;;;20910009;28;20028;-56
2023/01/28 22:41:59;;;;;;;5.07;2.47;;;-6.50;99.90;;;;;;20908097;28;20029;-53
2023/01/28 22:52:00;;;;;;;5.45;2.63;;;-6.50;99.90;;;;;;20907219;28;20025;-55
2023/01/28 23:02:02;;;;;;;7.15;2.47;;;-6.60;99.90;;;;;;20905807;28;20045;-53
2023/01/28 23:12:05;;;;;;;3.97;1.90;;;-6.60;99.90;;;;;;20905054;28;20470;-57
2023/01/28 23:32:42;;;;;;;6.38;2.17;;;-6.70;99.90;;;;;;20883192;28;20029;-55
2023/01/28 23:42:48;;;;;;;3.85;1.67;;;-6.70;99.90;;;;;;20902766;28;20356;-55
2023/01/28 23:52:50;;;;;;;5.72;1.80;;;-6.60;99.90;;;;;;20902012;28;20025;-57
